NCAR-RAP Real-Time Weather Data

Output produced by METARs form (29 January 2015  04:15 UTC)
found at http://weather.rap.ucar.edu/surface/
 
Conditions at: KLOU observed 29 January 2015  03:53 UTC
Temperature: 1.7°C (35°F)
Dewpoint: -8.3°C (17°F) [RH = 47%]
Pressure (altimeter): 30.14 inches Hg (1020.7 mb)
[Sea-level pressure: 1021.0 mb]
Winds: from the SSE (150 degrees) at 5 MPH (4 knots; 2.1 m/s)
Visibility: 10 or more miles (16+ km)
Ceiling: at least 12,000 feet AGL
Clouds: sky clear below 12,000 feet AGL
Present Weather: automated observation with no human augmentation;
there may or may not be significant weather present at this time
KLOU 290353Z AUTO 15004KT 10SM CLR 02/M08 A3014 RMK AO2 SLP210 T00171083